Main page
METAR-TAF:

METAR-TAF

Airports :

Qaisumah, Saudi Arabia

Al Qaisumah/Hafr Al Batin Airport

latitude: 28-19N, longitude: 046-07E, elevation: 358 m

Current weather observation

The report was made 53 minutes ago, at 04:00 UTC
Wind 6 kt from the North/Northeast
Temperature 22°C
Humidity 65%
Pressure 1013 hPa
Visibility 10 km or more
no clouds below 1500 m and no cumulonimbus

METAR: OEPA 220400Z 03006KT CAVOK 22/15 Q1013 NOSIG

Time: 07:53 (04:53 UTC)

Forecast

The report was made 5 hours and 53 minutes ago, at 23:00 UTC
Forecast valid from 22 at 00 UTC to 23 at 06 UTC
Wind 6 kt from the Northeast with gusts up to 16 kt
Visibility: 7000 m
Few clouds at a height of 4000 ft
Temporary
from 22 at 06 UTC to 22 at 16 UTC
Visibility: 4000 m
widespread dust, Blowing dust

TAF: OEPA 212300Z 2200/2306 04006G16KT 7000 FEW040 TEMPO 2206/2216 4000 DU BLDU

Weather observations and forecasts of more than 4000 airports (METAR and TAF reports).

The available stations are represented by yellow and red dots on the map.

Hover mouse over dot to see the name of the station.

Then click to see weather observations and forecasts.

To change the map : click on the green buttons with a black cross to zoom in, on the green button with a dash to zoom out, or on the green arrows for adjacent maps.


METAR-TAF: